Nbp Commander — V2QM6 — position and weather

sailwx.info

Track history (hours):
 
Tides and Currents Weather Stations Pressure Air Temp Water Temp Dewpoint Dewpoint Depression Visibility Wind Speed Wind Dir Waves Ship Positions

Nbp Commander

Last reported at 2017-Nov-19 16:00 UTC. Time now 2017-Nov-19 16:06 UTC.
Position N 36°20' W 008°43'.

Length 107 m; draft 5.2 m.

Type: Ship. MMSI: 305715000.

Date/timePositionNaut miles runAvg speedWind from/ knotsBaromVisibWave heightAir tempDewpointWater temp
2017-Nov-19 16:00N 36°20' W 008°43'  
2017-Nov-17 11:26N 35°58' W 005°30'710.3
2017-Nov-17 10:47N 36°00' W 005°22'22010.3
2017-Nov-16 13:22N 37°13' W 001°04'510.8
2017-Nov-16 12:54N 37°17' W 000°59'410.7
2017-Nov-16 12:30N 37°20' W 000°55'510.6
2017-Nov-16 12:00N 37°23' W 000°50'510.6
2017-Nov-16 11:30N 37°27' W 000°45'610.5
2017-Nov-16 10:59N 37°30' W 000°40'510.7
2017-Nov-16 10:30N 37°34' W 000°35'510.6
2017-Nov-16 10:00N 37°38' W 000°31'510.7
2017-Nov-16 09:30N 37°42' W 000°27'710.8
2017-Nov-16 08:49N 37°48' W 000°22'510.7
2017-Nov-16 08:22N 37°52' W 000°19'  
Track history (hours):
 
Tides and Currents Weather Stations Pressure Air Temp Water Temp Dewpoint Dewpoint Depression Visibility Wind Speed Wind Dir Waves Ship Positions

Nbp Commander

Last reported at 2017-Nov-19 16:00 UTC. Time now 2017-Nov-19 16:06 UTC.
Position N 36°20' W 008°43'.

Length 107 m; draft 5.2 m.

Type: Ship. MMSI: 305715000.

Date/timePositionNaut miles runAvg speedWind from/ knotsBaromVisibWave heightAir tempDewpointWater temp
2017-Nov-19 16:00N 36°20' W 008°43'  
2017-Nov-17 11:26N 35°58' W 005°30'710.3
2017-Nov-17 10:47N 36°00' W 005°22'22010.3
2017-Nov-16 13:22N 37°13' W 001°04'510.8
2017-Nov-16 12:54N 37°17' W 000°59'410.7
2017-Nov-16 12:30N 37°20' W 000°55'510.6
2017-Nov-16 12:00N 37°23' W 000°50'510.6
2017-Nov-16 11:30N 37°27' W 000°45'610.5
2017-Nov-16 10:59N 37°30' W 000°40'510.7
2017-Nov-16 10:30N 37°34' W 000°35'510.6
2017-Nov-16 10:00N 37°38' W 000°31'510.7
2017-Nov-16 09:30N 37°42' W 000°27'710.8
2017-Nov-16 08:49N 37°48' W 000°22'510.7
2017-Nov-16 08:22N 37°52' W 000°19'  

Dump ship's entire track history